sensor_id;sensor_type;location;lat;lon;timestamp;P1;durP1;ratioP1;P2;durP2;ratioP2
55076;SDS011;40971;44.702;11.030;2022-12-18T00:00:06;9.07;;;2.70;;
55076;SDS011;40971;44.702;11.030;2022-12-18T00:02:50;7.28;;;3.72;;
55076;SDS011;40971;44.702;11.030;2022-12-18T00:05:16;6.47;;;2.85;;
55076;SDS011;40971;44.702;11.030;2022-12-18T00:07:41;4.70;;;2.30;;
55076;SDS011;40971;44.702;11.030;2022-12-18T00:10:07;6.22;;;2.78;;
55076;SDS011;40971;44.702;11.030;2022-12-18T00:12:32;7.32;;;2.92;;
55076;SDS011;40971;44.702;11.030;2022-12-18T00:14:58;7.97;;;3.53;;
55076;SDS011;40971;44.702;11.030;2022-12-18T00:17:23;4.65;;;2.30;;
55076;SDS011;40971;44.702;11.030;2022-12-18T00:19:49;8.60;;;3.15;;
55076;SDS011;40971;44.702;11.030;2022-12-18T00:22:14;11.02;;;3.03;;
55076;SDS011;40971;44.702;11.030;2022-12-18T00:24:43;9.23;;;2.58;;
55076;SDS011;40971;44.702;11.030;2022-12-18T00:27:08;3.85;;;1.80;;
55076;SDS011;40971;44.702;11.030;2022-12-18T00:29:34;9.30;;;2.50;;
55076;SDS011;40971;44.702;11.030;2022-12-18T00:31:59;6.07;;;2.50;;
55076;SDS011;40971;44.702;11.030;2022-12-18T00:34:25;6.05;;;2.70;;
55076;SDS011;40971;44.702;11.030;2022-12-18T00:37:09;5.85;;;3.15;;
55076;SDS011;40971;44.702;11.030;2022-12-18T00:39:52;4.65;;;2.63;;
55076;SDS011;40971;44.702;11.030;2022-12-18T00:42:18;4.32;;;2.35;;
55076;SDS011;40971;44.702;11.030;2022-12-18T00:45:02;10.98;;;2.50;;
55076;SDS011;40971;44.702;11.030;2022-12-18T00:47:27;4.47;;;2.00;;
55076;SDS011;40971;44.702;11.030;2022-12-18T00:49:53;4.93;;;2.55;;
55076;SDS011;40971;44.702;11.030;2022-12-18T00:52:18;5.63;;;2.67;;
55076;SDS011;40971;44.702;11.030;2022-12-18T00:54:44;4.68;;;2.15;;
55076;SDS011;40971;44.702;11.030;2022-12-18T00:57:09;5.30;;;2.15;;
55076;SDS011;40971;44.702;11.030;2022-12-18T00:59:53;4.25;;;1.52;;
55076;SDS011;40971;44.702;11.030;2022-12-18T01:02:18;4.53;;;1.95;;
55076;SDS011;40971;44.702;11.030;2022-12-18T01:04:44;5.47;;;2.88;;
55076;SDS011;40971;44.702;11.030;2022-12-18T01:07:09;6.28;;;2.17;;
55076;SDS011;40971;44.702;11.030;2022-12-18T01:09:35;4.40;;;2.33;;
55076;SDS011;40971;44.702;11.030;2022-12-18T01:12:19;3.97;;;2.05;;
55076;SDS011;40971;44.702;11.030;2022-12-18T01:14:44;3.53;;;1.77;;
55076;SDS011;40971;44.702;11.030;2022-12-18T01:17:10;4.03;;;1.90;;
55076;SDS011;40971;44.702;11.030;2022-12-18T01:19:35;6.60;;;1.73;;
55076;SDS011;40971;44.702;11.030;2022-12-18T01:22:01;4.53;;;2.13;;
55076;SDS011;40971;44.702;11.030;2022-12-18T01:24:26;3.67;;;1.95;;
55076;SDS011;40971;44.702;11.030;2022-12-18T01:26:52;7.68;;;2.63;;
55076;SDS011;40971;44.702;11.030;2022-12-18T01:29:17;4.80;;;2.42;;
55076;SDS011;40971;44.702;11.030;2022-12-18T01:31:43;6.10;;;2.97;;
55076;SDS011;40971;44.702;11.030;2022-12-18T01:34:08;7.72;;;1.80;;
55076;SDS011;40971;44.702;11.030;2022-12-18T01:36:35;3.88;;;1.85;;
55076;SDS011;40971;44.702;11.030;2022-12-18T01:39:06;5.20;;;1.75;;
55076;SDS011;40971;44.702;11.030;2022-12-18T01:41:37;5.63;;;1.75;;
55076;SDS011;40971;44.702;11.030;2022-12-18T01:47:20;4.60;;;2.65;;
55076;SDS011;40971;44.702;11.030;2022-12-18T01:52:53;2.63;;;1.58;;
55076;SDS011;40971;44.702;11.030;2022-12-18T01:55:23;2.80;;;1.52;;
55076;SDS011;40971;44.702;11.030;2022-12-18T01:57:54;3.65;;;1.67;;
55076;SDS011;40971;44.702;11.030;2022-12-18T02:00:38;4.78;;;1.95;;
55076;SDS011;40971;44.702;11.030;2022-12-18T02:03:04;4.15;;;2.05;;
55076;SDS011;40971;44.702;11.030;2022-12-18T02:16:05;4.43;;;2.35;;
55076;SDS011;40971;44.702;11.030;2022-12-18T02:18:45;3.13;;;1.73;;
55076;SDS011;40971;44.702;11.030;2022-12-18T02:21:28;3.42;;;2.30;;
55076;SDS011;40971;44.702;11.030;2022-12-18T02:27:07;4.07;;;1.33;;
55076;SDS011;40971;44.702;11.030;2022-12-18T02:29:55;2.17;;;1.33;;
55076;SDS011;40971;44.702;11.030;2022-12-18T02:32:25;3.08;;;1.30;;
55076;SDS011;40971;44.702;11.030;2022-12-18T02:34:54;2.45;;;1.33;;
55076;SDS011;40971;44.702;11.030;2022-12-18T02:37:22;4.15;;;2.10;;
55076;SDS011;40971;44.702;11.030;2022-12-18T02:39:49;3.05;;;1.73;;
55076;SDS011;40971;44.702;11.030;2022-12-18T02:42:19;4.57;;;1.88;;
55076;SDS011;40971;44.702;11.030;2022-12-18T02:44:49;6.07;;;2.35;;
55076;SDS011;40971;44.702;11.030;2022-12-18T02:47:17;4.85;;;1.70;;
55076;SDS011;40971;44.702;11.030;2022-12-18T02:52:38;2.38;;;1.23;;
55076;SDS011;40971;44.702;11.030;2022-12-18T02:55:10;4.25;;;1.30;;
55076;SDS011;40971;44.702;11.030;2022-12-18T03:00:36;3.70;;;2.08;;
55076;SDS011;40971;44.702;11.030;2022-12-18T03:06:00;6.90;;;2.30;;
55076;SDS011;40971;44.702;11.030;2022-12-18T03:08:35;4.25;;;1.98;;
55076;SDS011;40971;44.702;11.030;2022-12-18T03:11:05;6.00;;;1.83;;
55076;SDS011;40971;44.702;11.030;2022-12-18T03:13:37;3.80;;;1.65;;
55076;SDS011;40971;44.702;11.030;2022-12-18T03:16:09;4.03;;;1.27;;
55076;SDS011;40971;44.702;11.030;2022-12-18T03:21:14;5.22;;;1.95;;
55076;SDS011;40971;44.702;11.030;2022-12-18T03:26:28;3.08;;;1.75;;
55076;SDS011;40971;44.702;11.030;2022-12-18T03:28:56;2.65;;;1.85;;
55076;SDS011;40971;44.702;11.030;2022-12-18T03:31:29;3.33;;;1.58;;
55076;SDS011;40971;44.702;11.030;2022-12-18T03:33:58;2.92;;;1.40;;
55076;SDS011;40971;44.702;11.030;2022-12-18T03:36:27;3.20;;;1.48;;
55076;SDS011;40971;44.702;11.030;2022-12-18T03:38:53;9.38;;;2.45;;
55076;SDS011;40971;44.702;11.030;2022-12-18T03:44:28;4.30;;;1.50;;
55076;SDS011;40971;44.702;11.030;2022-12-18T03:47:28;3.75;;;1.92;;
55076;SDS011;40971;44.702;11.030;2022-12-18T03:49:56;5.20;;;1.13;;
55076;SDS011;40971;44.702;11.030;2022-12-18T03:52:26;4.70;;;2.20;;
55076;SDS011;40971;44.702;11.030;2022-12-18T03:55:10;4.47;;;2.28;;
55076;SDS011;40971;44.702;11.030;2022-12-18T03:57:36;4.13;;;1.92;;
55076;SDS011;40971;44.702;11.030;2022-12-18T04:00:05;3.28;;;1.50;;
55076;SDS011;40971;44.702;11.030;2022-12-18T04:02:33;5.32;;;1.88;;
55076;SDS011;40971;44.702;11.030;2022-12-18T04:05:02;4.30;;;2.28;;
55076;SDS011;40971;44.702;11.030;2022-12-18T04:07:50;3.10;;;1.80;;
55076;SDS011;40971;44.702;11.030;2022-12-18T04:10:17;4.78;;;2.47;;
55076;SDS011;40971;44.702;11.030;2022-12-18T04:12:43;2.83;;;1.52;;
55076;SDS011;40971;44.702;11.030;2022-12-18T04:15:09;5.40;;;2.08;;
55076;SDS011;40971;44.702;11.030;2022-12-18T04:17:35;4.95;;;1.73;;
55076;SDS011;40971;44.702;11.030;2022-12-18T04:20:01;3.67;;;1.83;;
55076;SDS011;40971;44.702;11.030;2022-12-18T04:22:26;4.93;;;2.05;;
55076;SDS011;40971;44.702;11.030;2022-12-18T04:24:52;3.70;;;1.92;;
55076;SDS011;40971;44.702;11.030;2022-12-18T04:27:18;7.55;;;2.72;;
55076;SDS011;40971;44.702;11.030;2022-12-18T04:29:43;2.90;;;1.70;;
55076;SDS011;40971;44.702;11.030;2022-12-18T04:32:09;5.10;;;2.47;;
55076;SDS011;40971;44.702;11.030;2022-12-18T04:34:34;8.63;;;2.85;;
55076;SDS011;40971;44.702;11.030;2022-12-18T04:37:00;6.82;;;2.85;;
55076;SDS011;40971;44.702;11.030;2022-12-18T04:39:25;4.22;;;1.83;;
55076;SDS011;40971;44.702;11.030;2022-12-18T04:41:51;3.30;;;1.65;;
55076;SDS011;40971;44.702;11.030;2022-12-18T04:44:16;4.90;;;2.58;;
55076;SDS011;40971;44.702;11.030;2022-12-18T04:46:42;8.43;;;2.85;;
55076;SDS011;40971;44.702;11.030;2022-12-18T04:49:07;4.78;;;2.60;;
55076;SDS011;40971;44.702;11.030;2022-12-18T04:51:33;6.43;;;2.42;;
55076;SDS011;40971;44.702;11.030;2022-12-18T04:53:58;4.55;;;1.92;;
55076;SDS011;40971;44.702;11.030;2022-12-18T04:56:24;3.58;;;1.95;;
55076;SDS011;40971;44.702;11.030;2022-12-18T04:58:49;4.65;;;1.75;;
55076;SDS011;40971;44.702;11.030;2022-12-18T05:01:15;5.50;;;2.35;;
55076;SDS011;40971;44.702;11.030;2022-12-18T05:03:42;4.55;;;2.17;;
55076;SDS011;40971;44.702;11.030;2022-12-18T05:06:08;5.18;;;2.47;;
55076;SDS011;40971;44.702;11.030;2022-12-18T05:08:35;5.70;;;2.15;;
55076;SDS011;40971;44.702;11.030;2022-12-18T05:11:01;2.75;;;1.48;;
55076;SDS011;40971;44.702;11.030;2022-12-18T05:13:29;5.50;;;2.95;;
55076;SDS011;40971;44.702;11.030;2022-12-18T05:15:55;10.93;;;3.38;;
55076;SDS011;40971;44.702;11.030;2022-12-18T05:18:21;4.78;;;1.92;;
55076;SDS011;40971;44.702;11.030;2022-12-18T05:20:50;6.22;;;2.92;;
55076;SDS011;40971;44.702;11.030;2022-12-18T05:23:16;5.30;;;2.67;;
55076;SDS011;40971;44.702;11.030;2022-12-18T05:25:42;3.78;;;1.83;;
55076;SDS011;40971;44.702;11.030;2022-12-18T05:28:18;3.72;;;1.83;;
55076;SDS011;40971;44.702;11.030;2022-12-18T05:30:50;4.32;;;2.35;;
55076;SDS011;40971;44.702;11.030;2022-12-18T05:33:17;3.85;;;1.83;;
55076;SDS011;40971;44.702;11.030;2022-12-18T05:35:43;3.40;;;1.73;;
55076;SDS011;40971;44.702;11.030;2022-12-18T05:40:54;4.88;;;2.25;;
55076;SDS011;40971;44.702;11.030;2022-12-18T05:43:21;7.85;;;2.20;;
55076;SDS011;40971;44.702;11.030;2022-12-18T05:46:05;3.88;;;1.73;;
55076;SDS011;40971;44.702;11.030;2022-12-18T05:48:32;5.45;;;2.88;;
55076;SDS011;40971;44.702;11.030;2022-12-18T05:51:03;4.43;;;2.05;;
55076;SDS011;40971;44.702;11.030;2022-12-18T05:53:31;5.53;;;2.20;;
55076;SDS011;40971;44.702;11.030;2022-12-18T05:55:59;5.03;;;2.22;;
55076;SDS011;40971;44.702;11.030;2022-12-18T05:58:43;6.18;;;2.55;;
55076;SDS011;40971;44.702;11.030;2022-12-18T06:01:10;3.80;;;1.88;;
55076;SDS011;40971;44.702;11.030;2022-12-18T06:03:38;4.60;;;1.85;;
55076;SDS011;40971;44.702;11.030;2022-12-18T06:06:12;5.03;;;2.38;;
55076;SDS011;40971;44.702;11.030;2022-12-18T06:08:38;1.83;;;1.05;;
55076;SDS011;40971;44.702;11.030;2022-12-18T06:11:04;2.83;;;1.52;;
55076;SDS011;40971;44.702;11.030;2022-12-18T06:13:29;8.30;;;2.03;;
55076;SDS011;40971;44.702;11.030;2022-12-18T06:15:55;5.28;;;2.50;;
55076;SDS011;40971;44.702;11.030;2022-12-18T06:18:20;4.00;;;1.73;;
55076;SDS011;40971;44.702;11.030;2022-12-18T06:20:53;2.55;;;1.27;;
55076;SDS011;40971;44.702;11.030;2022-12-18T06:23:20;2.88;;;1.75;;
55076;SDS011;40971;44.702;11.030;2022-12-18T06:28:30;4.85;;;2.42;;
55076;SDS011;40971;44.702;11.030;2022-12-18T06:30:56;3.13;;;1.60;;
55076;SDS011;40971;44.702;11.030;2022-12-18T06:33:22;4.20;;;1.95;;
55076;SDS011;40971;44.702;11.030;2022-12-18T06:35:52;4.78;;;2.13;;
55076;SDS011;40971;44.702;11.030;2022-12-18T06:38:17;4.32;;;2.13;;
55076;SDS011;40971;44.702;11.030;2022-12-18T06:40:43;2.80;;;1.40;;
55076;SDS011;40971;44.702;11.030;2022-12-18T06:43:09;2.70;;;1.27;;
55076;SDS011;40971;44.702;11.030;2022-12-18T06:45:36;4.60;;;2.33;;
55076;SDS011;40971;44.702;11.030;2022-12-18T06:48:01;4.80;;;1.95;;
55076;SDS011;40971;44.702;11.030;2022-12-18T06:50:27;4.00;;;2.20;;
55076;SDS011;40971;44.702;11.030;2022-12-18T06:52:53;3.05;;;1.63;;
55076;SDS011;40971;44.702;11.030;2022-12-18T06:55:18;4.60;;;2.17;;
55076;SDS011;40971;44.702;11.030;2022-12-18T06:57:44;3.65;;;2.20;;
55076;SDS011;40971;44.702;11.030;2022-12-18T07:00:09;3.85;;;1.73;;
55076;SDS011;40971;44.702;11.030;2022-12-18T07:02:35;2.15;;;1.27;;
55076;SDS011;40971;44.702;11.030;2022-12-18T07:05:01;4.50;;;2.13;;
55076;SDS011;40971;44.702;11.030;2022-12-18T07:07:26;3.20;;;1.48;;
55076;SDS011;40971;44.702;11.030;2022-12-18T07:09:51;5.40;;;2.35;;
55076;SDS011;40971;44.702;11.030;2022-12-18T07:12:35;2.95;;;1.35;;
55076;SDS011;40971;44.702;11.030;2022-12-18T07:15:01;2.92;;;1.60;;
55076;SDS011;40971;44.702;11.030;2022-12-18T07:17:27;4.40;;;2.33;;
55076;SDS011;40971;44.702;11.030;2022-12-18T07:19:54;4.22;;;1.73;;
55076;SDS011;40971;44.702;11.030;2022-12-18T07:22:20;3.40;;;1.45;;
55076;SDS011;40971;44.702;11.030;2022-12-18T07:24:45;5.55;;;2.22;;
55076;SDS011;40971;44.702;11.030;2022-12-18T07:27:11;7.18;;;2.97;;
55076;SDS011;40971;44.702;11.030;2022-12-18T07:29:54;1.70;;;0.85;;
55076;SDS011;40971;44.702;11.030;2022-12-18T07:32:20;4.40;;;2.30;;
55076;SDS011;40971;44.702;11.030;2022-12-18T07:34:45;4.72;;;2.53;;
55076;SDS011;40971;44.702;11.030;2022-12-18T07:37:11;3.50;;;2.10;;
55076;SDS011;40971;44.702;11.030;2022-12-18T07:39:36;4.47;;;1.75;;
55076;SDS011;40971;44.702;11.030;2022-12-18T07:42:02;3.95;;;2.17;;
55076;SDS011;40971;44.702;11.030;2022-12-18T07:44:46;2.88;;;1.85;;
55076;SDS011;40971;44.702;11.030;2022-12-18T07:47:11;9.10;;;4.10;;
55076;SDS011;40971;44.702;11.030;2022-12-18T07:49:36;4.15;;;1.95;;
55076;SDS011;40971;44.702;11.030;2022-12-18T07:54:46;4.10;;;2.20;;
55076;SDS011;40971;44.702;11.030;2022-12-18T07:57:14;3.35;;;1.73;;
55076;SDS011;40971;44.702;11.030;2022-12-18T07:59:58;5.47;;;1.98;;
55076;SDS011;40971;44.702;11.030;2022-12-18T08:02:23;6.15;;;2.70;;
55076;SDS011;40971;44.702;11.030;2022-12-18T08:04:49;8.25;;;2.78;;
55076;SDS011;40971;44.702;11.030;2022-12-18T08:07:14;6.50;;;2.75;;
55076;SDS011;40971;44.702;11.030;2022-12-18T08:09:39;4.93;;;2.17;;
55076;SDS011;40971;44.702;11.030;2022-12-18T08:14:49;7.03;;;3.03;;
55076;SDS011;40971;44.702;11.030;2022-12-18T08:17:15;5.55;;;2.92;;
55076;SDS011;40971;44.702;11.030;2022-12-18T08:19:40;5.95;;;2.85;;
55076;SDS011;40971;44.702;11.030;2022-12-18T08:22:05;8.75;;;4.03;;
55076;SDS011;40971;44.702;11.030;2022-12-18T08:24:31;7.95;;;3.65;;
55076;SDS011;40971;44.702;11.030;2022-12-18T08:27:15;5.93;;;2.13;;
55076;SDS011;40971;44.702;11.030;2022-12-18T08:32:25;6.60;;;2.80;;
55076;SDS011;40971;44.702;11.030;2022-12-18T08:34:52;10.55;;;3.50;;
55076;SDS011;40971;44.702;11.030;2022-12-18T08:37:17;4.97;;;2.78;;
55076;SDS011;40971;44.702;11.030;2022-12-18T08:39:43;30.98;;;4.50;;
55076;SDS011;40971;44.702;11.030;2022-12-18T08:42:08;8.27;;;3.53;;
55076;SDS011;40971;44.702;11.030;2022-12-18T08:44:52;8.70;;;3.40;;
55076;SDS011;40971;44.702;11.030;2022-12-18T08:47:36;8.00;;;3.38;;
55076;SDS011;40971;44.702;11.030;2022-12-18T08:50:01;13.63;;;3.25;;
55076;SDS011;40971;44.702;11.030;2022-12-18T08:52:27;7.68;;;3.03;;
55076;SDS011;40971;44.702;11.030;2022-12-18T08:54:53;9.02;;;3.97;;
55076;SDS011;40971;44.702;11.030;2022-12-18T08:57:18;10.57;;;4.30;;
55076;SDS011;40971;44.702;11.030;2022-12-18T08:59:44;11.43;;;4.53;;
55076;SDS011;40971;44.702;11.030;2022-12-18T09:02:12;7.88;;;3.78;;
55076;SDS011;40971;44.702;11.030;2022-12-18T09:04:37;7.63;;;4.43;;
55076;SDS011;40971;44.702;11.030;2022-12-18T09:07:04;5.70;;;2.67;;
55076;SDS011;40971;44.702;11.030;2022-12-18T09:09:30;8.02;;;3.65;;
55076;SDS011;40971;44.702;11.030;2022-12-18T09:12:14;8.57;;;4.50;;
55076;SDS011;40971;44.702;11.030;2022-12-18T09:14:39;9.23;;;4.15;;
55076;SDS011;40971;44.702;11.030;2022-12-18T09:17:23;6.00;;;3.65;;
55076;SDS011;40971;44.702;11.030;2022-12-18T09:19:48;8.32;;;3.45;;
55076;SDS011;40971;44.702;11.030;2022-12-18T09:22:14;12.13;;;4.72;;
55076;SDS011;40971;44.702;11.030;2022-12-18T09:24:41;8.80;;;4.20;;
55076;SDS011;40971;44.702;11.030;2022-12-18T09:27:06;10.75;;;5.13;;
55076;SDS011;40971;44.702;11.030;2022-12-18T09:29:32;9.45;;;4.68;;
55076;SDS011;40971;44.702;11.030;2022-12-18T09:31:57;7.72;;;4.18;;
55076;SDS011;40971;44.702;11.030;2022-12-18T09:34:23;13.82;;;4.38;;
55076;SDS011;40971;44.702;11.030;2022-12-18T09:36:48;6.57;;;3.65;;
55076;SDS011;40971;44.702;11.030;2022-12-18T09:39:15;10.48;;;4.47;;
55076;SDS011;40971;44.702;11.030;2022-12-18T09:41:59;13.00;;;6.18;;
55076;SDS011;40971;44.702;11.030;2022-12-18T09:44:25;7.35;;;3.35;;
55076;SDS011;40971;44.702;11.030;2022-12-18T09:49:29;8.55;;;4.63;;
55076;SDS011;40971;44.702;11.030;2022-12-18T09:57:42;7.45;;;3.78;;
55076;SDS011;40971;44.702;11.030;2022-12-18T10:00:17;9.20;;;4.68;;
55076;SDS011;40971;44.702;11.030;2022-12-18T10:02:48;11.73;;;4.93;;
55076;SDS011;40971;44.702;11.030;2022-12-18T10:10:50;8.95;;;3.28;;
55076;SDS011;40971;44.702;11.030;2022-12-18T10:24:49;7.53;;;3.03;;
55076;SDS011;40971;44.702;11.030;2022-12-18T10:27:26;10.90;;;4.93;;
55076;SDS011;40971;44.702;11.030;2022-12-18T10:29:53;8.32;;;2.83;;
55076;SDS011;40971;44.702;11.030;2022-12-18T10:32:29;10.40;;;5.32;;
55076;SDS011;40971;44.702;11.030;2022-12-18T10:37:23;6.10;;;3.17;;
55076;SDS011;40971;44.702;11.030;2022-12-18T10:40:07;6.65;;;3.67;;
55076;SDS011;40971;44.702;11.030;2022-12-18T10:42:38;6.40;;;3.28;;
55076;SDS011;40971;44.702;11.030;2022-12-18T10:45:12;7.40;;;3.83;;
55076;SDS011;40971;44.702;11.030;2022-12-18T10:47:47;9.98;;;4.90;;
55076;SDS011;40971;44.702;11.030;2022-12-18T10:53:20;12.25;;;5.97;;
55076;SDS011;40971;44.702;11.030;2022-12-18T10:55:57;11.38;;;5.45;;
55076;SDS011;40971;44.702;11.030;2022-12-18T11:03:42;8.73;;;3.83;;
55076;SDS011;40971;44.702;11.030;2022-12-18T11:06:12;12.80;;;4.35;;
55076;SDS011;40971;44.702;11.030;2022-12-18T11:08:40;9.40;;;4.18;;
55076;SDS011;40971;44.702;11.030;2022-12-18T11:11:15;12.02;;;5.22;;
55076;SDS011;40971;44.702;11.030;2022-12-18T11:14:05;10.88;;;5.75;;
55076;SDS011;40971;44.702;11.030;2022-12-18T11:16:43;9.75;;;4.68;;
55076;SDS011;40971;44.702;11.030;2022-12-18T11:21:56;12.57;;;5.80;;
55076;SDS011;40971;44.702;11.030;2022-12-18T11:24:25;11.00;;;4.78;;
55076;SDS011;40971;44.702;11.030;2022-12-18T11:29:42;9.73;;;4.43;;
55076;SDS011;40971;44.702;11.030;2022-12-18T11:32:25;14.38;;;5.47;;
55076;SDS011;40971;44.702;11.030;2022-12-18T11:35:19;10.07;;;4.50;;
55076;SDS011;40971;44.702;11.030;2022-12-18T11:37:47;10.65;;;4.70;;
55076;SDS011;40971;44.702;11.030;2022-12-18T11:40:20;11.50;;;4.50;;
55076;SDS011;40971;44.702;11.030;2022-12-18T11:46:30;10.52;;;4.72;;
55076;SDS011;40971;44.702;11.030;2022-12-18T11:54:28;18.02;;;6.18;;
55076;SDS011;40971;44.702;11.030;2022-12-18T12:00:11;8.95;;;4.03;;
55076;SDS011;40971;44.702;11.030;2022-12-18T12:17:14;11.32;;;5.13;;
55076;SDS011;40971;44.702;11.030;2022-12-18T12:25:07;11.48;;;5.82;;
55076;SDS011;40971;44.702;11.030;2022-12-18T12:31:03;13.30;;;4.88;;
55076;SDS011;40971;44.702;11.030;2022-12-18T12:33:49;12.93;;;5.60;;
55076;SDS011;40971;44.702;11.030;2022-12-18T12:36:41;12.65;;;6.18;;
55076;SDS011;40971;44.702;11.030;2022-12-18T12:42:04;26.60;;;6.80;;
55076;SDS011;40971;44.702;11.030;2022-12-18T12:44:56;12.75;;;5.63;;
55076;SDS011;40971;44.702;11.030;2022-12-18T12:47:27;12.45;;;6.25;;
55076;SDS011;40971;44.702;11.030;2022-12-18T12:49:58;11.77;;;6.20;;
55076;SDS011;40971;44.702;11.030;2022-12-18T12:52:28;14.02;;;6.18;;
55076;SDS011;40971;44.702;11.030;2022-12-18T12:54:55;13.40;;;6.07;;
55076;SDS011;40971;44.702;11.030;2022-12-18T13:00:08;13.52;;;6.07;;
55076;SDS011;40971;44.702;11.030;2022-12-18T13:08:10;19.00;;;6.20;;
55076;SDS011;40971;44.702;11.030;2022-12-18T13:10:57;14.10;;;5.97;;
55076;SDS011;40971;44.702;11.030;2022-12-18T13:13:52;14.03;;;6.20;;
55076;SDS011;40971;44.702;11.030;2022-12-18T13:16:23;15.63;;;6.65;;
55076;SDS011;40971;44.702;11.030;2022-12-18T13:18:56;17.33;;;7.35;;
55076;SDS011;40971;44.702;11.030;2022-12-18T13:24:22;25.45;;;6.63;;
55076;SDS011;40971;44.702;11.030;2022-12-18T13:26:48;17.92;;;7.70;;
55076;SDS011;40971;44.702;11.030;2022-12-18T13:29:21;14.10;;;6.60;;
55076;SDS011;40971;44.702;11.030;2022-12-18T13:32:15;13.80;;;6.97;;
55076;SDS011;40971;44.702;11.030;2022-12-18T13:34:45;15.00;;;5.88;;
55076;SDS011;40971;44.702;11.030;2022-12-18T13:39:58;12.52;;;5.78;;
55076;SDS011;40971;44.702;11.030;2022-12-18T13:48:03;13.02;;;6.05;;
55076;SDS011;40971;44.702;11.030;2022-12-18T13:50:29;15.68;;;7.00;;
55076;SDS011;40971;44.702;11.030;2022-12-18T13:52:55;12.68;;;6.25;;
55076;SDS011;40971;44.702;11.030;2022-12-18T13:55:21;15.90;;;7.07;;
55076;SDS011;40971;44.702;11.030;2022-12-18T13:57:47;14.07;;;6.70;;
55076;SDS011;40971;44.702;11.030;2022-12-18T14:02:50;15.32;;;6.70;;
55076;SDS011;40971;44.702;11.030;2022-12-18T14:05:36;14.23;;;5.95;;
55076;SDS011;40971;44.702;11.030;2022-12-18T14:08:06;13.65;;;6.05;;
55076;SDS011;40971;44.702;11.030;2022-12-18T14:10:38;13.68;;;6.28;;
55076;SDS011;40971;44.702;11.030;2022-12-18T14:13:09;18.95;;;5.35;;
55076;SDS011;40971;44.702;11.030;2022-12-18T14:15:41;13.00;;;5.97;;
55076;SDS011;40971;44.702;11.030;2022-12-18T14:18:24;14.07;;;5.43;;
55076;SDS011;40971;44.702;11.030;2022-12-18T14:21:03;12.40;;;4.95;;
55076;SDS011;40971;44.702;11.030;2022-12-18T14:23:36;12.15;;;5.95;;
55076;SDS011;40971;44.702;11.030;2022-12-18T14:26:03;12.80;;;5.70;;
55076;SDS011;40971;44.702;11.030;2022-12-18T14:28:50;13.45;;;6.45;;
55076;SDS011;40971;44.702;11.030;2022-12-18T14:31:20;12.63;;;6.05;;
55076;SDS011;40971;44.702;11.030;2022-12-18T14:33:47;13.35;;;5.35;;
55076;SDS011;40971;44.702;11.030;2022-12-18T14:38:58;10.88;;;4.50;;
55076;SDS011;40971;44.702;11.030;2022-12-18T14:41:24;15.80;;;6.55;;
55076;SDS011;40971;44.702;11.030;2022-12-18T14:43:51;12.50;;;5.88;;
55076;SDS011;40971;44.702;11.030;2022-12-18T14:46:38;11.52;;;5.40;;
55076;SDS011;40971;44.702;11.030;2022-12-18T14:51:50;11.68;;;5.30;;
55076;SDS011;40971;44.702;11.030;2022-12-18T14:54:18;12.55;;;5.15;;
55076;SDS011;40971;44.702;11.030;2022-12-18T14:57:13;12.40;;;5.50;;
55076;SDS011;40971;44.702;11.030;2022-12-18T14:59:40;11.63;;;5.05;;
55076;SDS011;40971;44.702;11.030;2022-12-18T15:02:18;15.35;;;4.85;;
55076;SDS011;40971;44.702;11.030;2022-12-18T15:04:47;12.45;;;4.65;;
55076;SDS011;40971;44.702;11.030;2022-12-18T15:07:17;13.43;;;6.10;;
55076;SDS011;40971;44.702;11.030;2022-12-18T15:10:20;8.25;;;3.58;;
55076;SDS011;40971;44.702;11.030;2022-12-18T15:18:01;9.20;;;4.13;;
55076;SDS011;40971;44.702;11.030;2022-12-18T15:20:26;13.27;;;5.55;;
55076;SDS011;40971;44.702;11.030;2022-12-18T15:22:52;10.98;;;5.40;;
55076;SDS011;40971;44.702;11.030;2022-12-18T15:25:31;10.30;;;4.47;;
55076;SDS011;40971;44.702;11.030;2022-12-18T15:28:01;12.63;;;4.78;;
55076;SDS011;40971;44.702;11.030;2022-12-18T15:30:27;9.88;;;4.53;;
55076;SDS011;40971;44.702;11.030;2022-12-18T15:33:15;10.63;;;4.32;;
55076;SDS011;40971;44.702;11.030;2022-12-18T15:35:42;8.80;;;4.80;;
55076;SDS011;40971;44.702;11.030;2022-12-18T15:38:08;9.57;;;4.32;;
55076;SDS011;40971;44.702;11.030;2022-12-18T15:40:33;13.35;;;5.25;;
55076;SDS011;40971;44.702;11.030;2022-12-18T15:42:58;10.43;;;5.15;;
55076;SDS011;40971;44.702;11.030;2022-12-18T15:45:42;11.65;;;4.38;;
55076;SDS011;40971;44.702;11.030;2022-12-18T15:48:12;9.82;;;4.75;;
55076;SDS011;40971;44.702;11.030;2022-12-18T15:50:45;10.65;;;5.32;;
55076;SDS011;40971;44.702;11.030;2022-12-18T15:53:10;11.93;;;5.38;;
55076;SDS011;40971;44.702;11.030;2022-12-18T15:55:54;11.07;;;4.88;;
55076;SDS011;40971;44.702;11.030;2022-12-18T15:58:38;10.52;;;4.80;;
55076;SDS011;40971;44.702;11.030;2022-12-18T16:01:04;10.85;;;5.22;;
55076;SDS011;40971;44.702;11.030;2022-12-18T16:03:29;9.20;;;4.13;;
55076;SDS011;40971;44.702;11.030;2022-12-18T16:05:55;8.68;;;4.03;;
55076;SDS011;40971;44.702;11.030;2022-12-18T16:08:20;11.18;;;5.72;;
55076;SDS011;40971;44.702;11.030;2022-12-18T16:10:46;11.98;;;5.13;;
55076;SDS011;40971;44.702;11.030;2022-12-18T16:13:20;7.72;;;4.32;;
55076;SDS011;40971;44.702;11.030;2022-12-18T16:15:45;8.75;;;4.43;;
55076;SDS011;40971;44.702;11.030;2022-12-18T16:18:11;8.07;;;3.60;;
55076;SDS011;40971;44.702;11.030;2022-12-18T16:20:36;15.80;;;6.13;;
55076;SDS011;40971;44.702;11.030;2022-12-18T16:23:03;12.20;;;5.35;;
55076;SDS011;40971;44.702;11.030;2022-12-18T16:25:47;7.97;;;3.35;;
55076;SDS011;40971;44.702;11.030;2022-12-18T16:28:12;12.02;;;6.57;;
55076;SDS011;40971;44.702;11.030;2022-12-18T16:30:38;10.45;;;5.45;;
55076;SDS011;40971;44.702;11.030;2022-12-18T16:33:05;9.95;;;5.55;;
55076;SDS011;40971;44.702;11.030;2022-12-18T16:35:30;10.35;;;4.28;;
55076;SDS011;40971;44.702;11.030;2022-12-18T16:37:57;10.73;;;4.82;;
55076;SDS011;40971;44.702;11.030;2022-12-18T16:43:27;10.00;;;4.68;;
55076;SDS011;40971;44.702;11.030;2022-12-18T16:46:11;12.05;;;3.80;;
55076;SDS011;40971;44.702;11.030;2022-12-18T16:48:36;11.63;;;5.97;;
55076;SDS011;40971;44.702;11.030;2022-12-18T16:51:02;19.23;;;6.03;;
55076;SDS011;40971;44.702;11.030;2022-12-18T16:53:29;13.60;;;6.05;;
55076;SDS011;40971;44.702;11.030;2022-12-18T16:55:55;8.57;;;3.95;;
55076;SDS011;40971;44.702;11.030;2022-12-18T16:58:21;10.85;;;4.95;;
55076;SDS011;40971;44.702;11.030;2022-12-18T17:00:47;13.35;;;6.65;;
55076;SDS011;40971;44.702;11.030;2022-12-18T17:03:12;7.55;;;3.38;;
55076;SDS011;40971;44.702;11.030;2022-12-18T17:05:38;15.05;;;4.38;;
55076;SDS011;40971;44.702;11.030;2022-12-18T17:08:03;16.65;;;7.32;;
55076;SDS011;40971;44.702;11.030;2022-12-18T17:10:47;12.35;;;5.75;;
55076;SDS011;40971;44.702;11.030;2022-12-18T17:13:13;15.48;;;5.57;;
55076;SDS011;40971;44.702;11.030;2022-12-18T17:15:38;13.23;;;6.32;;
55076;SDS011;40971;44.702;11.030;2022-12-18T17:18:04;11.70;;;5.90;;
55076;SDS011;40971;44.702;11.030;2022-12-18T17:20:29;26.90;;;6.70;;
55076;SDS011;40971;44.702;11.030;2022-12-18T17:22:55;14.20;;;4.85;;
55076;SDS011;40971;44.702;11.030;2022-12-18T17:25:20;10.35;;;4.22;;
55076;SDS011;40971;44.702;11.030;2022-12-18T17:27:46;7.35;;;4.13;;
55076;SDS011;40971;44.702;11.030;2022-12-18T17:30:12;7.82;;;3.85;;
55076;SDS011;40971;44.702;11.030;2022-12-18T17:32:37;17.67;;;6.03;;